Terminal Aerodrome Forecast
Issued by NWS Wakefield, VA

Home | Current Version | Previous Version | Text Only | Print | Product List | Glossary On
Versions: 1 2 3 4 5 6 7 8 9 10 11 12
000
FTUS41 KAKQ 171726
TAFRIC
TAF
KRIC 171726Z 1718/1818 20004KT P6SM BKN250
     FM172100 20003KT P6SM OVC080
     FM180800 24005KT P6SM SCT250=

USA.gov is the U.S. government's official web portal to all federal, state and local government web resources and services.